Time;durP1;ratioP1;P1;durP2;ratioP2;P2;SDS_P1;SDS_P2;PMS_P1;PMS_P2;Temp;Humidity;BMP_temperature;BMP_pressure;BME280_temperature;BME280_humidity;BME280_pressure;Samples;Min_cycle;Max_cycle;Signal;HPM_P1;HPM_P2
2023/10/14 00:04:46;;;;;;;12.20;4.95;;;;;;;23.38;49.83;98280.69;7239983;40;20350;31
2023/10/14 00:10:24;;;;;;;14.45;4.75;;;;;;;23.33;50.21;98263.09;7217335;40;20238;31
2023/10/14 00:15:46;;;;;;;14.00;4.80;;;;;;;23.33;50.11;98276.84;7188126;40;20434;31
2023/10/14 00:21:25;;;;;;;14.55;4.97;;;;;;;23.25;51.19;98249.88;7229233;40;20257;31
2023/10/14 00:27:07;;;;;;;11.07;4.53;;;;;;;23.21;51.41;98264.44;7275242;39;20270;31
2023/10/14 00:32:24;;;;;;;11.20;4.90;;;;;;;23.19;50.88;98252.88;7298584;39;20316;31
2023/10/14 00:38:08;;;;;;;11.98;5.40;;;;;;;23.16;51.41;98265.25;7298811;39;20519;31
2023/10/14 00:43:35;;;;;;;25.63;5.50;;;;;;;23.15;52.07;98240.75;7277700;40;20244;31
2023/10/14 00:49:11;;;;;;;11.30;4.97;;;;;;;23.15;52.59;98247.09;7225966;40;20351;31
2023/10/14 00:54:58;;;;;;;11.05;4.93;;;;;;;23.11;52.37;98231.41;7264515;39;20361;31
2023/10/14 01:00:37;;;;;;;10.98;4.57;;;;;;;23.09;52.88;98264.66;7215352;40;20273;31
2023/10/14 01:06:22;;;;;;;11.00;5.20;;;;;;;23.07;52.49;98255.87;7228295;40;20261;31
2023/10/14 01:11:51;;;;;;;10.48;5.12;;;;;;;23.03;52.43;98243.75;7219925;40;20421;31
2023/10/14 01:17:29;;;;;;;11.48;5.36;;;;;;;22.99;53.31;98248.16;7263759;40;20240;31
2023/10/14 01:23:07;;;;;;;10.48;5.30;;;;;;;22.97;52.96;98219.25;7270952;39;20447;31
2023/10/14 01:28:52;;;;;;;10.73;5.12;;;;;;;22.90;53.51;98211.28;7278104;39;20254;31
2023/10/14 01:34:28;;;;;;;18.18;5.82;;;;;;;22.83;54.25;98214.28;7319898;39;20353;31
2023/10/14 01:39:57;;;;;;;11.60;5.76;;;;;;;22.68;55.56;98218.88;7278078;40;20253;31
2023/10/14 01:45:31;;;;;;;12.48;5.30;;;;;;;22.63;55.44;98205.09;7300605;39;20316;31
2023/10/14 01:51:05;;;;;;;16.25;6.05;;;;;;;22.59;55.77;98193.00;7265743;40;20249;31
2023/10/14 01:56:37;;;;;;;12.88;5.32;;;;;;;22.56;55.39;98183.34;7030719;40;21374;31
2023/10/14 02:02:12;;;;;;;13.98;5.37;;;;;;;22.60;55.93;98183.66;7211517;40;20382;31
2023/10/14 02:07:46;;;;;;;14.40;5.33;;;;;;;22.50;55.63;98189.94;7246728;40;20313;31
2023/10/14 02:13:23;;;;;;;15.64;5.60;;;;;;;22.47;56.02;98191.28;7237727;40;20511;31
2023/10/14 02:19:16;;;;;;;12.75;5.90;;;;;;;22.45;56.33;98187.16;7270279;40;20252;31
2023/10/14 02:24:18;;;;;;;13.00;5.17;;;;;;;22.43;56.20;98200.31;7268823;40;20491;31
2023/10/14 02:29:55;;;;;;;12.45;5.05;;;;;;;22.36;56.74;98184.09;7283746;40;20363;31
2023/10/14 02:35:33;;;;;;;12.15;4.85;;;;;;;22.31;57.20;98199.72;7284648;39;20422;31
2023/10/14 02:40:50;;;;;;;17.30;5.58;;;;;;;22.14;58.20;98194.41;7250892;40;20256;31
2023/10/14 02:46:27;;;;;;;14.15;5.30;;;;;;;21.94;59.90;98218.97;7219500;40;20257;31
2023/10/14 02:52:03;;;;;;;9.35;4.35;;;;;;;21.64;63.19;98213.22;7167063;40;20305;31
2023/10/14 02:57:35;;;;;;;9.70;4.55;;;;;;;21.49;63.35;98235.88;7196086;40;20270;31
2023/10/14 03:03:14;;;;;;;8.37;4.70;;;;;;;21.26;63.85;98228.78;7257105;40;20246;31
2023/10/14 03:08:34;;;;;;;11.23;5.00;;;;;;;21.13;64.85;98256.63;7272577;40;20338;31
2023/10/14 03:13:55;;;;;;;6.47;4.07;;;;;;;21.01;66.84;98264.13;7290220;39;20259;31
2023/10/14 03:19:29;;;;;;;9.30;4.97;;;;;;;20.87;66.75;98262.84;7301791;39;20451;31
2023/10/14 03:25:07;;;;;;;9.38;4.07;;;;;;;20.76;66.54;98247.37;7322154;39;20244;31
2023/10/14 03:30:43;;;;;;;6.68;3.87;;;;;;;20.66;66.31;98253.56;7352687;39;20245;31
2023/10/14 03:36:28;;;;;;;5.45;3.55;;;;;;;20.51;67.59;98265.13;7299943;39;20361;31
2023/10/14 03:41:42;;;;;;;6.10;3.30;;;;;;;20.52;66.36;98223.00;7257733;40;20272;31
2023/10/14 03:47:00;;;;;;;8.07;3.72;;;;;;;20.44;66.55;98228.91;7234307;40;20269;31
2023/10/14 03:57:42;;;;;;;8.05;3.37;;;;;;;20.37;65.94;98261.09;7290081;39;20279;31
2023/10/14 04:03:02;;;;;;;8.80;3.50;;;;;;;20.31;65.25;98259.41;7314615;39;20244;31
2023/10/14 04:08:39;;;;;;;9.45;3.70;;;;;;;20.23;65.61;98277.03;7283856;40;20368;31
2023/10/14 04:14:13;;;;;;;4.75;2.55;;;;;;;20.19;65.34;98295.03;7298925;40;20349;31
2023/10/14 04:19:44;;;;;;;6.50;2.75;;;;;;;20.19;65.92;98324.28;7312142;39;20248;31
2023/10/14 04:25:18;;;;;;;6.30;2.60;;;;;;;20.16;65.77;98311.13;7267905;39;20388;31
2023/10/14 04:36:09;;;;;;;6.75;2.65;;;;;;;20.13;66.51;98317.09;7282370;39;20292;31
2023/10/14 04:46:51;;;;;;;6.12;2.67;;;;;;;19.99;66.81;98338.50;7310813;39;20413;31
2023/10/14 04:52:26;;;;;;;8.15;2.70;;;;;;;19.92;67.81;98339.75;7339235;39;21391;31
2023/10/14 04:58:11;;;;;;;6.55;2.30;;;;;;;19.84;68.68;98367.47;7347583;39;20307;31
2023/10/14 05:03:28;;;;;;;4.60;2.20;;;;;;;19.89;67.67;98383.97;7316997;39;20259;31
2023/10/14 05:09:09;;;;;;;6.70;2.58;;;;;;;19.77;69.30;98373.94;7326302;39;20259;31
2023/10/14 05:14:37;;;;;;;6.50;2.20;;;;;;;19.89;68.23;98383.97;7266397;40;20321;31
2023/10/14 05:19:59;;;;;;;4.87;2.10;;;;;;;19.86;69.11;98387.22;7199549;40;20328;31
2023/10/14 05:25:39;;;;;;;5.40;2.10;;;;;;;19.76;69.13;98385.13;7238540;40;20323;31
2023/10/14 05:31:10;;;;;;;4.80;2.00;;;;;;;19.74;69.74;98390.84;7247899;40;20338;31
2023/10/14 05:42:12;;;;;;;7.47;2.60;;;;;;;19.75;69.43;98397.94;7270563;39;20272;31
2023/10/14 05:52:44;;;;;;;6.50;2.20;;;;;;;19.83;69.51;98417.78;7248991;40;20260;31
2023/10/14 05:58:21;;;;;;;5.40;1.93;;;;;;;19.77;69.02;98417.69;7217898;40;20242;31
2023/10/14 06:03:57;;;;;;;3.95;1.85;;;;;;;19.83;68.60;98424.09;7263767;39;20354;31
2023/10/14 06:14:37;;;;;;;5.40;2.00;;;;;;;19.82;69.70;98451.69;7246553;40;20321;31
2023/10/14 06:19:58;;;;;;;5.50;2.10;;;;;;;19.85;70.02;98454.75;7285132;39;20251;31
2023/10/14 06:25:20;;;;;;;3.45;1.35;;;;;;;19.83;69.75;98469.75;7314373;39;20243;31
2023/10/14 06:30:54;;;;;;;4.43;1.67;;;;;;;19.79;70.47;98485.81;7336133;39;20283;31
2023/10/14 06:36:29;;;;;;;4.60;1.70;;;;;;;19.76;70.61;98497.25;7289406;39;20466;31
2023/10/14 06:41:51;;;;;;;3.90;1.50;;;;;;;19.71;72.17;98528.06;7288544;39;20417;31
2023/10/14 06:47:29;;;;;;;3.73;1.50;;;;;;;19.70;73.17;98551.00;7286142;40;20248;31
2023/10/14 06:53:07;;;;;;;3.90;1.80;;;;;;;19.45;75.15;98539.50;7254444;40;20261;31
2023/10/14 06:58:39;;;;;;;4.17;1.50;;;;;;;19.37;74.49;98548.88;7228525;40;20246;31
2023/10/14 07:04:12;;;;;;;3.70;1.30;;;;;;;19.31;75.80;98554.47;7216975;40;20272;31
2023/10/14 07:09:33;;;;;;;1.50;1.10;;;;;;;19.29;nan;98573.00;7206221;40;20254;31
2023/10/14 07:14:54;;;;;;;2.40;1.10;;;;;;;19.30;75.11;98580.16;7218538;40;20241;31
2023/10/14 07:20:29;;;;;;;2.77;1.20;;;;;;;19.21;76.33;98584.31;7267129;39;20291;31
2023/10/14 07:25:52;;;;;;;3.45;1.50;;;;;;;19.31;75.04;98598.19;7282761;40;20276;31
2023/10/14 07:31:26;;;;;;;2.75;1.35;;;;;;;19.28;76.10;98615.06;7300060;40;20245;31
2023/10/14 07:37:03;;;;;;;2.53;1.15;;;;;;;19.25;75.23;98602.72;7277437;40;20317;31
2023/10/14 07:42:23;;;;;;;2.10;1.30;;;;;;;19.25;74.52;98610.91;7270050;40;20415;31
2023/10/14 07:47:43;;;;;;;2.75;1.35;;;;;;;19.22;74.85;98624.19;7282137;39;20360;31
2023/10/14 07:53:22;;;;;;;2.17;1.20;;;;;;;19.09;75.11;98629.87;7281043;40;20327;31
2023/10/14 07:58:56;;;;;;;3.23;1.30;;;;;;;19.08;75.23;98636.44;7233106;40;20242;31
2023/10/14 08:04:32;;;;;;;2.73;1.70;;;;;;;19.19;75.08;98646.53;7288764;39;20251;31
2023/10/14 08:10:17;;;;;;;1.50;1.20;;;;;;;19.16;74.49;98644.28;7218609;40;20245;31
2023/10/14 08:15:52;;;;;;;1.73;1.17;;;;;;;19.13;74.32;98661.16;7206786;40;20238;31
2023/10/14 08:21:13;;;;;;;2.63;1.30;;;;;;;19.15;74.69;98672.66;7201677;40;20246;31
2023/10/14 08:26:49;;;;;;;1.83;1.20;;;;;;;19.09;74.01;98670.88;7292077;39;20278;31
2023/10/14 08:32:09;;;;;;;1.70;1.20;;;;;;;19.06;73.77;98677.63;7247362;40;20249;31
2023/10/14 08:37:46;;;;;;;1.60;1.10;;;;;;;19.13;73.45;98685.75;7010115;40;21285;31
2023/10/14 08:43:21;;;;;;;1.10;1.00;;;;;;;19.18;73.53;98710.44;7279099;40;20350;31
2023/10/14 08:48:57;;;;;;;1.65;1.20;;;;;;;19.20;72.83;98705.59;7237737;40;20241;31
2023/10/14 08:54:32;;;;;;;0.90;0.80;;;;;;;19.18;73.32;98724.94;7220067;40;20354;31
2023/10/14 09:00:12;;;;;;;0.87;0.80;;;;;;;19.19;72.44;98725.78;7217282;40;20265;31
2023/10/14 09:05:44;;;;;;;1.17;0.77;;;;;;;19.16;72.07;98723.53;7270174;40;20253;31
2023/10/14 09:16:25;;;;;;;1.25;0.90;;;;;;;19.09;72.39;98731.81;7312499;39;20271;31
2023/10/14 09:22:01;;;;;;;0.80;0.80;;;;;;;19.15;70.53;98735.50;7299329;39;20236;31
2023/10/14 09:27:37;;;;;;;0.85;0.70;;;;;;;19.14;70.71;98747.50;7281254;40;20276;31
2023/10/14 09:33:09;;;;;;;1.40;0.60;;;;;;;19.15;70.60;98743.72;7237519;40;20261;31
2023/10/14 09:38:45;;;;;;;0.80;0.70;;;;;;;19.19;69.78;98731.25;7250798;40;20268;31
2023/10/14 09:44:20;;;;;;;0.70;0.70;;;;;;;19.35;69.31;98742.34;7220157;40;20304;31
2023/10/14 09:49:58;;;;;;;1.20;0.70;;;;;;;19.43;69.34;98748.56;7264030;40;20242;31
2023/10/14 09:55:33;;;;;;;0.80;0.80;;;;;;;19.42;68.21;98736.78;7246264;40;20302;31
2023/10/14 10:01:08;;;;;;;1.40;0.70;;;;;;;19.30;68.04;98744.97;7265028;40;20257;31
2023/10/14 10:06:47;;;;;;;2.30;0.80;;;;;;;19.29;66.59;98767.03;7278773;40;20276;31
2023/10/14 10:12:21;;;;;;;0.70;0.70;;;;;;;19.13;66.29;98773.97;7233408;40;20257;31
2023/10/14 10:17:56;;;;;;;0.80;0.80;;;;;;;19.00;65.69;98778.81;7247903;40;20343;31
2023/10/14 10:23:34;;;;;;;0.70;0.70;;;;;;;19.09;65.66;98796.53;7177531;40;20301;31
2023/10/14 10:29:08;;;;;;;1.00;0.90;;;;;;;19.17;65.28;98785.31;7259166;40;20252;31
2023/10/14 10:34:44;;;;;;;1.45;1.00;;;;;;;19.12;63.27;98782.44;7217698;40;20385;31
2023/10/14 10:40:26;;;;;;;1.20;1.00;;;;;;;19.12;61.90;98786.00;7257914;40;20238;31
2023/10/14 10:46:01;;;;;;;1.50;1.00;;;;;;;19.15;61.74;98814.75;7237456;40;20378;31
2023/10/14 10:51:36;;;;;;;1.40;1.10;;;;;;;19.10;61.23;98814.59;7228129;40;20256;31
2023/10/14 10:57:12;;;;;;;2.30;1.20;;;;;;;19.04;60.97;98816.38;7217137;40;20408;31
2023/10/14 11:02:33;;;;;;;2.67;1.10;;;;;;;18.94;59.07;98815.25;7265685;39;20241;31
2023/10/14 11:08:08;;;;;;;1.07;0.87;;;;;;;18.77;59.09;98815.88;7287113;39;20276;31
2023/10/14 11:13:46;;;;;;;1.57;1.10;;;;;;;18.86;59.34;98817.25;7272503;39;20261;31
2023/10/14 11:19:21;;;;;;;3.35;1.20;;;;;;;19.01;59.45;98807.78;7235812;40;20261;31
2023/10/14 11:24:58;;;;;;;1.43;1.20;;;;;;;19.14;58.48;98799.41;7223441;40;20363;31
2023/10/14 11:30:33;;;;;;;2.07;1.40;;;;;;;19.18;57.66;98806.91;7207463;40;20246;31
2023/10/14 11:35:53;;;;;;;2.15;1.40;;;;;;;19.20;56.64;98814.91;7222614;40;20257;31
2023/10/14 11:41:30;;;;;;;3.00;1.40;;;;;;;19.37;56.04;98810.44;7208557;40;20316;31
2023/10/14 11:47:05;;;;;;;2.67;1.43;;;;;;;19.71;53.30;98808.91;7223706;40;20253;31
2023/10/14 11:52:42;;;;;;;2.65;1.40;;;;;;;19.73;50.26;98804.87;7245694;39;20262;31
2023/10/14 11:58:15;;;;;;;2.77;1.70;;;;;;;19.85;49.44;98813.09;7254951;39;20261;31
2023/10/14 12:03:52;;;;;;;2.43;1.30;;;;;;;19.94;49.31;98806.19;7226572;40;20241;31
2023/10/14 12:09:12;;;;;;;3.70;1.70;;;;;;;20.09;49.88;98816.69;7210369;40;20265;31
2023/10/14 12:14:33;;;;;;;3.87;1.57;;;;;;;19.94;49.23;98827.25;7266757;39;20240;31
2023/10/14 12:20:10;;;;;;;2.30;1.60;;;;;;;20.01;47.92;98828.81;7292962;39;20263;31
2023/10/14 12:25:41;;;;;;;3.17;1.60;;;;;;;20.05;47.16;98837.41;7255378;40;20249;31
2023/10/14 12:31:20;;;;;;;2.87;1.87;;;;;;;20.02;47.79;98833.22;7246498;40;20241;31
2023/10/14 12:36:54;;;;;;;3.10;1.70;;;;;;;20.03;45.87;98855.94;7249850;40;20265;31
2023/10/14 12:42:44;;;;;;;3.30;1.70;;;;;;;20.26;48.36;98864.19;7280281;40;20268;31
2023/10/14 12:53:19;;;;;;;4.70;2.15;;;;;;;20.52;45.08;98871.97;7281690;40;20395;31
2023/10/14 12:58:57;;;;;;;5.27;2.10;;;;;;;20.59;45.57;98886.34;7254315;40;20261;31
2023/10/14 13:09:38;;;;;;;5.07;1.95;;;;;;;20.54;43.30;98908.12;7315527;39;20259;31
2023/10/14 13:15:12;;;;;;;5.60;2.20;;;;;;;20.47;45.11;98910.16;7280207;40;20257;31
2023/10/14 13:20:47;;;;;;;6.65;1.90;;;;;;;20.57;44.17;98904.94;7254411;40;20257;31
2023/10/14 13:26:24;;;;;;;4.05;2.00;;;;;;;20.56;42.88;98916.97;7278430;40;20237;31
2023/10/14 13:32:01;;;;;;;4.70;2.00;;;;;;;20.47;42.85;98932.06;7219667;40;20502;31
2023/10/14 13:37:21;;;;;;;4.03;1.80;;;;;;;20.26;41.87;98946.31;7218194;40;20250;31
2023/10/14 13:43:00;;;;;;;6.30;1.70;;;;;;;20.07;43.30;98955.66;7233352;40;20364;31
2023/10/14 13:48:33;;;;;;;3.90;1.90;;;;;;;20.11;42.48;98963.16;7227105;40;20400;31
2023/10/14 13:54:09;;;;;;;6.95;3.30;;;;;;;20.07;42.49;98972.91;7198543;40;20250;31
2023/10/14 13:59:43;;;;;;;5.90;2.20;;;;;;;20.00;42.64;98987.75;7227389;40;20257;31
2023/10/14 14:05:20;;;;;;;4.60;2.00;;;;;;;20.07;41.31;98996.69;7272216;40;20264;31
2023/10/14 14:11:00;;;;;;;5.78;2.78;;;;;;;19.84;43.15;99002.06;7267024;40;20241;31
2023/10/14 14:16:36;;;;;;;8.07;2.50;;;;;;;19.75;42.40;99005.13;7248995;39;20305;31
2023/10/14 14:27:14;;;;;;;5.20;1.90;;;;;;;19.69;42.04;99017.00;7296180;39;20269;31
2023/10/14 14:32:53;;;;;;;4.60;2.40;;;;;;;19.54;42.33;99027.47;7269136;40;20256;31
2023/10/14 14:38:25;;;;;;;5.77;2.20;;;;;;;19.28;42.88;99031.31;7238655;40;20254;31
2023/10/14 14:44:01;;;;;;;5.90;2.00;;;;;;;19.13;41.30;99049.97;7237125;40;20245;31
2023/10/14 14:49:37;;;;;;;5.20;2.30;;;;;;;18.84;43.11;99051.50;7265848;40;20395;31
2023/10/14 14:54:58;;;;;;;5.20;1.90;;;;;;;18.62;43.31;99063.87;7217972;40;20266;31
2023/10/14 15:00:28;;;;;;;4.08;1.60;;;;;;;18.54;43.16;99068.75;7041973;40;20362;31
2023/10/14 15:06:04;;;;;;;5.85;1.70;;;;;;;18.46;43.80;99075.28;7223079;40;20253;31
2023/10/14 15:11:25;;;;;;;4.25;1.65;;;;;;;18.56;44.65;99083.03;7195854;40;20359;31
2023/10/14 15:16:46;;;;;;;4.43;1.73;;;;;;;18.55;43.74;99092.28;7224154;40;20257;31
2023/10/14 15:22:20;;;;;;;4.53;1.50;;;;;;;18.31;44.58;99094.69;7279428;40;20353;31
2023/10/14 15:27:56;;;;;;;6.63;1.77;;;;;;;18.21;44.27;99101.69;7253755;40;20357;31
2023/10/14 15:33:32;;;;;;;3.77;1.60;;;;;;;18.33;44.47;99099.94;7303926;39;20240;31
2023/10/14 15:44:13;;;;;;;4.83;1.70;;;;;;;18.17;45.27;99112.19;7246094;40;20269;31
2023/10/14 15:54:53;;;;;;;6.40;1.90;;;;;;;18.09;45.48;99123.34;7331086;39;20267;31
2023/10/14 16:00:31;;;;;;;2.73;1.47;;;;;;;17.98;45.71;99116.69;7323033;39;20526;31
2023/10/14 16:05:56;;;;;;;4.10;2.13;;;;;;;18.02;44.97;99128.84;7285614;40;20271;31
2023/10/14 16:11:14;;;;;;;2.60;1.57;;;;;;;17.84;43.97;99136.88;7279685;40;20249;31
2023/10/14 16:16:47;;;;;;;3.45;1.70;;;;;;;17.66;43.98;99139.44;7248808;40;20245;31
2023/10/14 16:22:07;;;;;;;5.63;1.77;;;;;;;17.65;43.63;99154.13;7250913;40;20346;31
2023/10/14 16:27:30;;;;;;;6.10;1.67;;;;;;;17.65;45.10;99159.56;7257033;40;20262;31
2023/10/14 16:33:05;;;;;;;5.63;1.90;;;;;;;17.71;44.15;99175.09;7203405;40;20244;31
2023/10/14 16:38:25;;;;;;;3.85;1.85;;;;;;;17.63;44.41;99179.94;7237771;40;20262;31
2023/10/14 16:44:00;;;;;;;5.00;1.90;;;;;;;17.60;44.51;99183.91;7257725;40;20376;31
2023/10/14 16:49:38;;;;;;;2.80;1.30;;;;;;;17.64;45.31;99198.78;7270065;39;20256;31
2023/10/14 16:54:57;;;;;;;5.93;1.83;;;;;;;17.46;45.07;99214.94;7267055;40;20256;31
2023/10/14 17:00:33;;;;;;;3.80;1.60;;;;;;;17.16;45.96;99214.47;7242395;40;20241;31
2023/10/14 17:06:10;;;;;;;3.63;1.57;;;;;;;17.05;46.34;99226.00;7236471;40;20247;31
2023/10/14 17:11:46;;;;;;;5.37;2.00;;;;;;;17.16;46.23;99240.91;7186917;40;20239;31
2023/10/14 17:17:21;;;;;;;6.00;1.87;;;;;;;17.06;46.31;99244.03;7200084;40;20365;31
2023/10/14 17:22:58;;;;;;;4.10;1.80;;;;;;;16.93;46.23;99253.03;7147240;40;20243;31
2023/10/14 17:28:33;;;;;;;4.27;1.73;;;;;;;16.94;46.62;99262.00;7149752;40;20265;31
2023/10/14 17:34:09;;;;;;;6.07;2.10;;;;;;;16.88;46.57;99273.72;7237236;40;20256;31
2023/10/14 17:39:44;;;;;;;4.10;1.85;;;;;;;16.86;47.30;99287.53;7222323;40;20320;31
2023/10/14 17:45:04;;;;;;;5.93;2.90;;;;;;;16.77;46.97;99280.59;7219472;40;20377;31
2023/10/14 17:50:25;;;;;;;6.63;3.60;;;;;;;16.78;47.39;99298.63;7235211;40;20268;31
2023/10/14 17:56:00;;;;;;;4.15;2.10;;;;;;;16.71;47.21;99305.09;7246098;40;20272;31
2023/10/14 18:01:23;;;;;;;8.07;2.83;;;;;;;16.64;47.61;99305.03;7281220;39;20426;31
2023/10/14 18:06:56;;;;;;;4.67;2.40;;;;;;;16.65;48.16;99315.75;7298890;40;20258;31
2023/10/14 18:12:37;;;;;;;5.10;1.95;;;;;;;16.48;48.61;99313.53;7237000;40;20265;31
2023/10/14 18:17:52;;;;;;;6.63;3.10;;;;;;;16.37;47.62;99328.53;7201183;40;20343;31
2023/10/14 18:23:28;;;;;;;5.95;2.90;;;;;;;16.24;48.90;99331.16;7237479;40;20275;31
2023/10/14 18:29:03;;;;;;;4.10;2.10;;;;;;;16.12;48.87;99341.78;7177324;40;20385;31
2023/10/14 18:34:24;;;;;;;5.30;2.00;;;;;;;16.21;49.21;99350.63;7177256;40;20248;31
2023/10/14 18:39:42;;;;;;;4.30;1.80;;;;;;;16.03;48.16;99345.69;7276257;39;20240;31
2023/10/14 18:50:23;;;;;;;3.70;1.90;;;;;;;15.99;49.07;99347.13;7313979;39;20344;31
2023/10/14 19:01:02;;;;;;;8.10;2.70;;;;;;;15.96;49.28;99362.97;7287146;39;20428;31
2023/10/14 19:06:39;;;;;;;5.30;1.90;;;;;;;15.90;49.45;99366.47;7258273;40;20261;31
2023/10/14 19:12:00;;;;;;;4.65;2.00;;;;;;;15.83;49.00;99365.59;7235157;40;20345;31
2023/10/14 19:17:34;;;;;;;4.43;1.87;;;;;;;15.80;49.31;99366.00;7263729;39;20345;31
2023/10/14 19:23:25;;;;;;;6.23;2.20;;;;;;;15.73;49.19;99364.03;7282769;39;20254;31
2023/10/14 19:28:45;;;;;;;5.07;2.60;;;;;;;15.65;48.80;99371.50;7328710;39;20273;31
2023/10/14 19:39:25;;;;;;;8.03;3.63;;;;;;;15.58;50.39;99381.44;7255802;40;20299;31
2023/10/14 19:44:41;;;;;;;6.80;2.57;;;;;;;15.54;50.03;99391.03;7201169;40;20258;31
2023/10/14 19:50:03;;;;;;;6.05;2.00;;;;;;;15.49;51.01;99393.47;7305282;39;20271;31
2023/10/14 19:55:37;;;;;;;4.30;2.03;;;;;;;15.41;50.74;99402.56;7298888;39;20353;31
2023/10/14 20:00:57;;;;;;;5.13;2.00;;;;;;;15.39;50.74;99403.81;7257640;39;20265;31
2023/10/14 20:11:37;;;;;;;5.32;1.95;;;;;;;14.88;51.43;99420.94;7288510;39;20280;31
2023/10/14 20:22:02;;;;;;;7.75;2.00;;;;;;;14.89;51.97;99435.34;7285199;40;20364;31
2023/10/14 20:27:39;;;;;;;6.83;2.00;;;;;;;14.93;52.10;99428.50;7278112;40;20361;31
2023/10/14 20:33:17;;;;;;;3.57;1.93;;;;;;;15.01;52.47;99425.69;7274357;39;20268;31
2023/10/14 20:38:52;;;;;;;3.15;1.60;;;;;;;15.10;51.51;99427.25;7258257;40;20336;31
2023/10/14 20:44:24;;;;;;;6.10;2.00;;;;;;;15.12;51.71;99430.66;7269024;40;20337;31
2023/10/14 20:49:59;;;;;;;5.15;2.10;;;;;;;15.12;51.26;99424.38;7239963;40;20266;31
2023/10/14 20:55:34;;;;;;;5.67;2.23;;;;;;;14.95;51.61;99426.47;7248124;40;20346;31
2023/10/14 21:01:10;;;;;;;5.40;2.50;;;;;;;14.75;52.30;99439.75;7179900;40;20343;31
2023/10/14 21:06:31;;;;;;;3.53;1.87;;;;;;;14.55;53.10;99432.38;7189979;40;20262;31
2023/10/14 21:12:03;;;;;;;6.73;2.20;;;;;;;14.40;53.00;99444.03;7235978;40;20409;31
2023/10/14 21:17:39;;;;;;;4.03;1.90;;;;;;;14.14;53.71;99446.28;7263941;40;20288;31
2023/10/14 21:22:59;;;;;;;3.90;2.15;;;;;;;14.00;54.34;99444.37;7225754;40;20394;31
2023/10/14 21:28:34;;;;;;;4.67;1.80;;;;;;;13.85;54.62;99446.22;7218361;40;20235;31
2023/10/14 21:34:10;;;;;;;7.87;3.87;;;;;;;13.63;54.83;99447.91;7245756;40;20266;31
2023/10/14 21:39:30;;;;;;;5.20;2.13;;;;;;;13.54;55.29;99457.09;7228328;40;20256;31
2023/10/14 21:45:12;;;;;;;3.07;1.70;;;;;;;13.22;56.08;99449.16;7218047;40;20313;31
2023/10/14 21:50:39;;;;;;;6.60;2.07;;;;;;;12.94;57.62;99451.47;7218966;40;20356;31
2023/10/14 21:56:11;;;;;;;5.17;2.10;;;;;;;12.60;57.68;99454.44;7101842;39;21181;31
2023/10/14 22:01:35;;;;;;;5.50;2.03;;;;;;;12.63;57.71;99454.97;7279042;40;20392;31
2023/10/14 22:07:11;;;;;;;7.73;2.20;;;;;;;12.66;57.89;99448.34;7282625;39;20253;31
2023/10/14 22:12:43;;;;;;;5.47;2.00;;;;;;;12.62;57.45;99447.00;7206299;40;20246;31
2023/10/14 22:18:16;;;;;;;6.50;2.30;;;;;;;12.34;58.57;99438.44;7220710;40;20267;31
2023/10/14 22:23:52;;;;;;;8.77;2.50;;;;;;;12.05;59.35;99439.00;7244668;40;20245;31
2023/10/14 22:29:27;;;;;;;7.45;2.00;;;;;;;12.15;59.33;99436.13;7264717;40;20347;31
2023/10/14 22:35:05;;;;;;;5.90;2.30;;;;;;;12.35;58.52;99429.34;7233888;40;20261;31
2023/10/14 22:40:38;;;;;;;6.43;2.00;;;;;;;12.36;58.61;99432.88;7196480;40;21375;31
2023/10/14 22:46:14;;;;;;;4.73;2.80;;;;;;;12.36;58.61;99435.59;7157245;40;20274;31
2023/10/14 22:56:51;;;;;;;6.40;2.00;;;;;;;12.06;59.32;99429.91;7238151;39;20486;31
2023/10/14 23:02:11;;;;;;;6.05;2.10;;;;;;;12.02;59.81;99427.72;7226208;40;20299;31
2023/10/14 23:07:47;;;;;;;5.40;2.40;;;;;;;11.99;60.56;99428.87;7278590;40;20260;31
2023/10/14 23:13:23;;;;;;;6.00;2.30;;;;;;;12.11;60.34;99430.22;7220083;40;20241;31
2023/10/14 23:18:58;;;;;;;5.55;2.10;;;;;;;12.22;60.26;99430.88;7209330;40;20272;31
2023/10/14 23:24:33;;;;;;;4.67;2.10;;;;;;;12.37;60.58;99430.03;7196765;40;20257;31
2023/10/14 23:30:12;;;;;;;6.10;2.13;;;;;;;12.35;60.13;99431.19;7199790;40;20246;31
2023/10/14 23:35:43;;;;;;;7.27;2.00;;;;;;;12.38;60.45;99422.72;7237617;40;20233;31
2023/10/14 23:41:06;;;;;;;8.00;2.27;;;;;;;12.53;60.33;99424.56;7196609;40;20307;31
2023/10/14 23:46:39;;;;;;;4.45;2.00;;;;;;;12.61;60.02;99420.97;7202370;40;20265;31
2023/10/14 23:52:15;;;;;;;5.30;1.63;;;;;;;12.72;60.03;99415.22;7255912;40;20242;31
2023/10/14 23:57:49;;;;;;;4.03;2.00;;;;;;;12.86;60.03;99411.75;7261146;40;20264;31
